Time;durP1;ratioP1;P1;durP2;ratioP2;P2;SDS_P1;SDS_P2;PMS_P1;PMS_P2;Temp;Humidity;BMP_temperature;BMP_pressure;BME280_temperature;BME280_humidity;BME280_pressure;Samples;Min_cycle;Max_cycle;Signal;HPM_P1;HPM_P2
2023/08/19 00:00:22;;;;;;;5.30;3.67;;;;;;;23.65;62.67;65482.47;5053280;28;20202;-63
2023/08/19 00:02:49;;;;;;;3.85;2.80;;;;;;;23.59;62.54;65478.41;5053832;28;20220;-56
2023/08/19 00:05:14;;;;;;;6.43;3.50;;;;;;;23.46;63.24;65464.00;5053280;28;20205;-54
2023/08/19 00:07:40;;;;;;;6.63;3.45;;;;;;;23.56;63.16;65475.63;5053747;28;20204;-54
2023/08/19 00:10:06;;;;;;;8.18;3.00;;;;;;;23.55;62.67;65474.53;5035594;28;20629;-54
2023/08/19 00:12:31;;;;;;;3.90;2.75;;;;;;;23.47;61.77;65465.09;5053422;28;20270;-54
2023/08/19 00:14:57;;;;;;;5.03;2.67;;;;;;;23.46;62.87;65466.56;5053299;28;20291;-54
2023/08/19 00:17:23;;;;;;;3.97;3.15;;;;;;;23.47;61.68;65462.53;5053086;28;20706;-54
2023/08/19 00:19:50;;;;;;;7.47;3.10;;;;;;;23.53;62.79;65471.75;5035526;28;20579;-54
2023/08/19 00:22:16;;;;;;;4.65;3.10;;;;;;;23.50;62.75;65468.41;5035490;28;20205;-55
2023/08/19 00:24:41;;;;;;;5.85;2.95;;;;;;;23.40;62.61;65457.91;5053141;28;20193;-54
2023/08/19 00:27:06;;;;;;;5.03;2.72;;;;;;;23.44;62.34;65462.34;5053180;28;20300;-54
2023/08/19 00:29:32;;;;;;;3.40;2.72;;;;;;;23.40;63.04;65455.31;5035246;28;20583;-54
2023/08/19 00:31:57;;;;;;;3.97;3.20;;;;;;;23.32;62.70;65447.03;5035205;28;20680;-55
2023/08/19 00:34:23;;;;;;;5.53;3.30;;;;;;;23.38;62.32;65452.56;5052904;28;20658;-55
2023/08/19 00:36:56;;;;;;;4.15;2.70;;;;;;;23.39;61.17;65456.81;5053017;28;20212;-54
2023/08/19 00:39:22;;;;;;;5.50;3.20;;;;;;;23.39;61.57;65453.66;5053043;28;20229;-57
2023/08/19 00:41:48;;;;;;;6.35;2.72;;;;;;;23.32;61.64;65449.59;5053100;28;20315;-55
2023/08/19 00:44:13;;;;;;;3.08;2.35;;;;;;;23.34;61.97;65451.25;5052859;28;20274;-55
2023/08/19 00:46:40;;;;;;;5.57;2.97;;;;;;;23.21;62.32;65434.81;5035077;28;20703;-54
2023/08/19 00:49:06;;;;;;;3.55;2.50;;;;;;;23.32;62.69;65447.03;5052781;28;20202;-54
2023/08/19 00:51:32;;;;;;;5.32;3.13;;;;;;;23.23;63.08;65439.59;5053042;28;20263;-54
2023/08/19 00:53:58;;;;;;;3.42;2.75;;;;;;;23.16;63.34;65431.84;5051825;28;20201;-55
2023/08/19 00:56:23;;;;;;;6.82;2.85;;;;;;;23.24;63.22;65440.72;5052736;28;20671;-54
2023/08/19 00:58:49;;;;;;;9.55;3.20;;;;;;;23.04;63.85;65415.97;5052371;28;20221;-54
2023/08/19 01:01:14;;;;;;;3.08;2.70;;;;;;;23.09;63.63;65424.09;5052635;28;20206;-54
2023/08/19 01:03:40;;;;;;;3.83;3.00;;;;;;;23.01;64.45;65415.22;5052581;28;20205;-56
2023/08/19 01:06:08;;;;;;;6.47;2.83;;;;;;;23.06;64.29;65420.78;5052487;28;20300;-54
2023/08/19 01:08:43;;;;;;;3.13;2.70;;;;;;;23.09;63.17;65424.09;5052544;28;20209;-54
2023/08/19 01:11:23;;;;;;;7.30;2.75;;;;;;;23.06;64.07;65420.22;5052388;28;20228;-54
2023/08/19 01:13:58;;;;;;;5.03;3.35;;;;;;;22.98;63.72;65414.47;5052381;28;20209;-55
2023/08/19 01:16:26;;;;;;;3.28;2.55;;;;;;;22.96;63.35;65409.13;5052307;28;20205;-55
2023/08/19 01:18:53;;;;;;;4.47;3.28;;;;;;;23.18;61.76;65436.63;5052186;28;20301;-55
2023/08/19 01:21:20;;;;;;;4.88;2.80;;;;;;;23.02;64.02;65418.34;5052485;28;20217;-58
2023/08/19 01:23:47;;;;;;;3.63;3.05;;;;;;;23.01;63.10;65417.78;5052223;28;20182;-54
2023/08/19 01:26:13;;;;;;;10.02;3.30;;;;;;;23.06;63.23;65420.22;5052166;28;20240;-54
2023/08/19 01:28:39;;;;;;;11.38;2.78;;;;;;;22.96;63.84;65407.13;5052333;28;20651;-58
2023/08/19 01:31:04;;;;;;;3.95;2.80;;;;;;;22.99;63.54;65413.00;5052402;28;20206;-55
2023/08/19 01:33:31;;;;;;;4.03;3.25;;;;;;;22.95;64.00;65406.00;5051968;28;20771;-54
2023/08/19 01:36:05;;;;;;;5.38;2.45;;;;;;;22.95;64.06;65408.56;5051877;28;20283;-55
2023/08/19 01:38:39;;;;;;;4.80;3.10;;;;;;;23.00;63.85;65411.00;5052407;28;20230;-55
2023/08/19 01:41:06;;;;;;;5.43;3.08;;;;;;;22.93;64.11;65403.22;5052533;28;20205;-55
2023/08/19 01:43:32;;;;;;;5.32;3.10;;;;;;;22.82;64.06;65394.19;5034127;28;20213;-56
2023/08/19 01:45:59;;;;;;;5.20;2.97;;;;;;;23.05;63.40;65419.66;5051819;28;20296;-54
2023/08/19 01:48:24;;;;;;;3.28;2.72;;;;;;;22.79;64.88;65393.44;5051755;28;20218;-54
2023/08/19 01:50:50;;;;;;;8.00;3.60;;;;;;;22.76;65.28;65387.53;5051903;28;20162;-54
2023/08/19 01:53:15;;;;;;;3.78;3.20;;;;;;;22.82;64.72;65391.63;5052064;28;20214;-54
2023/08/19 01:55:41;;;;;;;9.45;3.50;;;;;;;22.73;64.58;65384.22;5051893;28;20684;-55
2023/08/19 01:58:07;;;;;;;7.28;3.45;;;;;;;22.68;65.13;65373.53;5034085;28;20213;-55
2023/08/19 02:00:32;;;;;;;3.33;3.03;;;;;;;22.65;65.28;65372.78;5034018;28;20355;-54
2023/08/19 02:02:58;;;;;;;5.88;3.22;;;;;;;22.57;66.97;65369.03;5033778;28;20734;-54
2023/08/19 02:05:23;;;;;;;5.82;3.33;;;;;;;22.45;66.82;65350.63;5051570;28;20714;-54
2023/08/19 02:07:48;;;;;;;3.50;3.13;;;;;;;22.42;67.12;65349.88;5051904;28;20231;-54
2023/08/19 02:10:14;;;;;;;7.20;3.17;;;;;;;22.41;67.20;65348.75;5051589;28;20311;-55
2023/08/19 02:12:39;;;;;;;7.20;3.00;;;;;;;22.40;67.23;65345.63;5051345;28;20201;-54
2023/08/19 02:15:06;;;;;;;4.82;3.70;;;;;;;22.28;67.99;65332.34;5051481;28;20570;-53
2023/08/19 02:17:31;;;;;;;4.50;3.00;;;;;;;22.45;67.13;65350.63;5051661;28;20205;-54
2023/08/19 02:19:56;;;;;;;4.97;3.08;;;;;;;22.44;66.66;65355.19;5051214;28;20654;-53
2023/08/19 02:22:22;;;;;;;4.10;3.00;;;;;;;22.43;67.20;65353.53;5051398;28;20219;-54
2023/08/19 02:24:48;;;;;;;6.32;3.60;;;;;;;22.44;67.26;65349.53;5051324;28;20327;-54
2023/08/19 02:27:13;;;;;;;8.30;3.42;;;;;;;22.37;67.17;65344.88;5051398;28;20205;-55
2023/08/19 02:29:38;;;;;;;3.78;3.40;;;;;;;22.38;67.12;65343.41;5051350;28;20549;-55
2023/08/19 02:32:04;;;;;;;5.75;3.00;;;;;;;22.34;67.36;65341.56;5051124;28;20217;-56
2023/08/19 02:34:30;;;;;;;4.97;3.55;;;;;;;22.42;67.23;65352.44;5051157;28;20209;-59
2023/08/19 02:36:55;;;;;;;5.95;3.35;;;;;;;22.39;67.56;65346.53;5051368;28;20202;-56
2023/08/19 02:39:21;;;;;;;6.28;3.38;;;;;;;22.33;67.58;65337.34;5051504;28;20230;-55
2023/08/19 02:41:46;;;;;;;6.18;3.55;;;;;;;22.27;67.65;65333.81;5051280;28;20219;-53
2023/08/19 02:44:11;;;;;;;4.55;2.83;;;;;;;22.36;67.80;65340.66;5051160;28;20583;-56
2023/08/19 02:46:37;;;;;;;7.10;4.00;;;;;;;22.40;67.13;65348.19;5051149;28;20255;-55
2023/08/19 02:49:02;;;;;;;8.48;3.70;;;;;;;22.26;67.62;65332.72;5051583;28;20284;-55
2023/08/19 02:51:28;;;;;;;5.22;3.47;;;;;;;22.29;67.21;65335.47;5050876;28;20232;-56
2023/08/19 02:53:53;;;;;;;5.55;3.40;;;;;;;22.23;67.21;65329.41;5050212;28;20173;-55
2023/08/19 02:56:19;;;;;;;7.43;4.03;;;;;;;22.21;66.30;65326.63;5049880;28;20217;-54
2023/08/19 02:58:45;;;;;;;5.45;3.65;;;;;;;22.15;67.54;65317.41;5050234;28;20264;-55
2023/08/19 03:01:13;;;;;;;5.95;3.97;;;;;;;22.20;68.54;65326.06;5049682;28;20292;-54
2023/08/19 03:03:39;;;;;;;7.53;3.47;;;;;;;22.05;68.78;65308.91;5050471;28;20208;-55
2023/08/19 03:06:05;;;;;;;5.47;3.35;;;;;;;22.09;68.53;65313.34;5050859;28;20208;-56
2023/08/19 03:08:31;;;;;;;6.70;3.65;;;;;;;22.16;68.36;65323.66;5051192;28;20645;-55
2023/08/19 03:10:56;;;;;;;4.95;3.95;;;;;;;22.09;68.18;65316.47;5051064;28;20334;-56
2023/08/19 03:13:22;;;;;;;4.20;3.53;;;;;;;21.91;69.13;65296.56;5050688;28;20197;-55
2023/08/19 03:15:47;;;;;;;4.43;3.60;;;;;;;21.87;69.38;65286.44;5050525;28;20288;-54
2023/08/19 03:18:14;;;;;;;4.68;3.58;;;;;;;21.84;69.27;65283.66;5050538;28;20229;-55
2023/08/19 03:20:41;;;;;;;40.83;30.65;;;;;;;21.86;69.58;65290.44;5050974;28;20232;-54
2023/08/19 03:23:07;;;;;;;14.00;10.65;;;;;;;21.72;69.08;65272.94;5050878;28;20201;-58
2023/08/19 03:25:32;;;;;;;7.05;5.75;;;;;;;21.68;69.99;65269.06;5050559;28;20628;-60
2023/08/19 03:27:58;;;;;;;11.52;7.90;;;;;;;21.68;70.46;65266.50;5051140;28;20220;-55
2023/08/19 03:30:23;;;;;;;10.73;8.27;;;;;;;21.70;70.73;65270.72;5032452;28;20197;-54
2023/08/19 03:32:49;;;;;;;7.38;4.05;;;;;;;21.72;68.05;65270.91;5050667;28;20761;-55
2023/08/19 03:35:14;;;;;;;4.15;3.22;;;;;;;21.60;68.18;65260.22;5050499;28;20752;-54
2023/08/19 03:37:39;;;;;;;4.95;4.45;;;;;;;21.62;70.34;65265.00;5050514;28;20679;-56
2023/08/19 03:40:06;;;;;;;3.55;3.25;;;;;;;21.60;68.65;65257.66;5050051;28;20288;-53
2023/08/19 03:42:31;;;;;;;6.00;3.65;;;;;;;21.57;70.31;65256.88;5049956;28;20209;-54
2023/08/19 03:44:56;;;;;;;8.68;3.38;;;;;;;21.60;69.51;65260.22;5050101;28;20301;-54
2023/08/19 03:47:22;;;;;;;7.57;4.93;;;;;;;21.45;71.25;65246.16;5050322;28;20335;-54
2023/08/19 03:49:48;;;;;;;4.75;3.75;;;;;;;21.43;71.86;65240.84;5049978;28;20702;-54
2023/08/19 03:52:14;;;;;;;4.97;3.38;;;;;;;21.53;69.19;65252.47;5050235;28;20291;-53
2023/08/19 03:54:40;;;;;;;4.88;3.55;;;;;;;21.50;69.77;65251.16;5032356;28;20173;-54
2023/08/19 03:57:07;;;;;;;8.05;3.80;;;;;;;21.48;71.30;65248.94;5050314;28;20231;-54
2023/08/19 03:59:33;;;;;;;4.70;3.90;;;;;;;21.55;70.92;65251.56;5049968;28;20221;-54
2023/08/19 04:01:58;;;;;;;8.05;3.63;;;;;;;21.62;69.93;65262.44;5049980;28;20582;-55
2023/08/19 04:04:23;;;;;;;5.95;3.75;;;;;;;21.56;70.24;65255.78;5050163;28;20211;-54
2023/08/19 04:06:49;;;;;;;6.53;3.85;;;;;;;21.63;69.99;65263.53;5049937;28;20687;-54
2023/08/19 04:09:15;;;;;;;7.22;3.80;;;;;;;21.65;70.00;65265.19;5049901;28;20206;-54
2023/08/19 04:11:40;;;;;;;4.82;3.47;;;;;;;21.82;68.84;65281.44;5049749;28;20227;-55
2023/08/19 04:14:05;;;;;;;21.38;12.13;;;;;;;21.66;69.87;65263.72;5049916;28;20251;-55
2023/08/19 04:16:31;;;;;;;6.93;4.45;;;;;;;21.75;69.87;65273.69;5050182;28;20205;-54
2023/08/19 04:18:57;;;;;;;12.27;7.70;;;;;;;21.62;69.92;65262.44;5032184;28;20228;-55
2023/08/19 04:21:24;;;;;;;7.05;4.25;;;;;;;21.83;70.65;65282.56;5049701;28;20214;-54
2023/08/19 04:23:49;;;;;;;6.35;3.67;;;;;;;21.90;68.92;65292.31;5049701;28;20360;-54
2023/08/19 04:26:15;;;;;;;7.95;3.38;;;;;;;21.79;69.91;65280.13;5049686;28;20717;-54
2023/08/19 04:28:41;;;;;;;4.63;3.78;;;;;;;21.82;69.42;65284.00;5049945;28;20201;-55
2023/08/19 04:31:07;;;;;;;5.90;3.65;;;;;;;21.70;70.23;65271.28;5053173;28;20706;-55
2023/08/19 04:33:34;;;;;;;6.07;3.97;;;;;;;21.71;69.61;65269.25;5035241;28;20205;-54
2023/08/19 04:36:00;;;;;;;5.95;4.05;;;;;;;21.75;69.38;65279.38;5035482;28;20205;-56
2023/08/19 04:38:26;;;;;;;8.55;4.03;;;;;;;21.87;68.85;65283.88;5053356;28;20225;-55
2023/08/19 04:40:52;;;;;;;10.48;3.97;;;;;;;21.82;69.63;65284.00;5052949;28;20703;-54
2023/08/19 04:43:18;;;;;;;8.63;4.22;;;;;;;21.83;69.22;65284.56;5053018;28;20339;-54
2023/08/19 04:45:44;;;;;;;5.68;3.80;;;;;;;21.85;68.89;65284.22;5052867;28;20205;-58
2023/08/19 04:48:09;;;;;;;9.85;3.92;;;;;;;21.72;69.72;65273.50;5035153;28;20213;-54
2023/08/19 04:50:35;;;;;;;4.90;3.60;;;;;;;21.75;70.01;65276.78;5052903;28;20289;-54
2023/08/19 04:53:01;;;;;;;6.32;3.65;;;;;;;21.75;68.78;65278.81;5052990;28;20666;-55
2023/08/19 04:55:27;;;;;;;5.60;3.92;;;;;;;21.68;70.04;65271.06;5052778;28;20214;-58
2023/08/19 04:57:53;;;;;;;8.38;3.50;;;;;;;21.60;70.66;65259.66;5053180;28;20220;-54
2023/08/19 05:00:18;;;;;;;3.92;3.50;;;;;;;21.90;70.33;65292.31;5034962;28;20206;-59
2023/08/19 05:02:44;;;;;;;6.25;4.45;;;;;;;21.92;70.21;65294.53;5052602;28;20421;-53
2023/08/19 05:05:09;;;;;;;8.60;3.60;;;;;;;21.84;78.85;65286.22;5034747;28;20198;-55
2023/08/19 05:07:34;;;;;;;8.95;3.67;;;;;;;22.32;72.75;65341.38;5052820;28;20245;-55
2023/08/19 05:10:00;;;;;;;3.67;3.35;;;;;;;22.40;76.49;65347.66;5052478;28;20582;-57
2023/08/19 05:12:25;;;;;;;5.63;3.67;;;;;;;22.44;75.24;65354.66;5052186;28;20556;-54
2023/08/19 05:14:51;;;;;;;5.28;3.13;;;;;;;22.62;68.24;65369.47;5052448;28;20203;-54
2023/08/19 05:17:18;;;;;;;6.25;3.60;;;;;;;22.76;72.19;65384.97;5052716;28;20205;-54
2023/08/19 05:19:43;;;;;;;7.22;4.38;;;;;;;22.96;66.66;65404.00;5052822;28;20320;-54
2023/08/19 05:22:09;;;;;;;6.70;3.97;;;;;;;23.02;74.56;65413.78;5051951;28;20292;-53
2023/08/19 05:24:35;;;;;;;4.55;3.90;;;;;;;23.07;74.04;65424.44;5052490;28;20603;-55
2023/08/19 05:27:00;;;;;;;5.78;3.50;;;;;;;23.35;72.30;65450.34;5052667;28;20682;-55
2023/08/19 05:29:26;;;;;;;3.20;2.95;;;;;;;23.70;72.81;65488.00;5052429;28;20208;-54
2023/08/19 05:31:52;;;;;;;8.07;3.78;;;;;;;23.86;67.03;65508.31;5052512;28;20217;-55
2023/08/19 05:34:17;;;;;;;5.30;4.10;;;;;;;23.91;69.71;65511.84;5052059;28;20541;-54
2023/08/19 05:36:43;;;;;;;8.95;4.32;;;;;;;24.14;65.82;65539.94;5052329;28;20208;-55
2023/08/19 05:39:08;;;;;;;7.22;3.90;;;;;;;23.97;63.07;65520.53;5051917;28;20232;-54
2023/08/19 05:41:34;;;;;;;7.32;3.97;;;;;;;23.79;74.26;65500.56;5051673;28;20213;-53
2023/08/19 05:44:00;;;;;;;6.07;3.60;;;;;;;23.86;68.86;65508.88;5051903;28;20303;-54
2023/08/19 05:46:25;;;;;;;4.22;3.22;;;;;;;23.81;65.33;65500.78;5052512;28;20210;-54
2023/08/19 05:48:51;;;;;;;7.00;3.75;;;;;;;23.69;65.15;65492.06;5052443;28;20221;-54
2023/08/19 05:51:17;;;;;;;4.28;3.45;;;;;;;23.31;64.69;65445.91;5051826;28;20213;-60
2023/08/19 05:53:43;;;;;;;5.03;3.40;;;;;;;23.16;63.46;65431.84;5051624;28;20209;-54
2023/08/19 05:56:08;;;;;;;4.03;3.47;;;;;;;23.07;66.48;65421.88;5051864;28;20205;-54
2023/08/19 05:58:34;;;;;;;5.65;3.75;;;;;;;23.00;65.06;65413.56;5052012;28;20316;-53
2023/08/19 06:01:06;;;;;;;6.35;3.35;;;;;;;22.93;66.48;65403.22;5051952;28;20201;-54
2023/08/19 06:03:32;;;;;;;5.20;3.47;;;;;;;22.93;65.96;65405.81;5051813;28;20755;-55
2023/08/19 06:06:05;;;;;;;8.85;3.65;;;;;;;22.97;67.49;65408.22;5034103;28;20272;-56
2023/08/19 06:08:31;;;;;;;5.10;3.28;;;;;;;22.98;66.43;65408.78;5034567;28;20206;-55
2023/08/19 06:11:02;;;;;;;3.88;3.42;;;;;;;23.06;67.27;65420.22;5051525;28;20197;-55
2023/08/19 06:13:32;;;;;;;9.10;3.92;;;;;;;23.11;66.23;65425.75;5033603;28;20217;-56
2023/08/19 06:15:58;;;;;;;3.90;3.45;;;;;;;23.08;65.46;65419.84;5052181;28;20189;-58
2023/08/19 06:18:24;;;;;;;5.22;3.35;;;;;;;23.10;65.05;65422.63;5052004;28;20282;-54
2023/08/19 06:20:51;;;;;;;4.80;3.63;;;;;;;23.18;68.55;65434.06;5051470;28;20181;-54
2023/08/19 06:23:20;;;;;;;6.45;3.83;;;;;;;23.27;64.93;65444.03;5051510;28;20694;-56
2023/08/19 06:25:48;;;;;;;6.57;3.92;;;;;;;23.34;64.71;65451.81;5051445;28;20236;-55
2023/08/19 06:28:14;;;;;;;8.40;3.63;;;;;;;23.41;64.60;65461.59;5051355;28;20640;-55
2023/08/19 06:30:40;;;;;;;8.02;4.15;;;;;;;23.39;64.14;65453.66;5051366;28;20205;-56
2023/08/19 06:33:06;;;;;;;7.80;4.25;;;;;;;23.52;65.41;65468.06;5033560;28;20214;-54
2023/08/19 06:35:32;;;;;;;11.52;6.22;;;;;;;23.51;61.54;65469.53;5051624;28;20613;-57
2023/08/19 06:38:02;;;;;;;9.57;3.92;;;;;;;23.56;62.75;65475.06;5051401;28;20248;-56
2023/08/19 06:40:31;;;;;;;6.72;3.80;;;;;;;23.62;63.09;65479.69;5051136;28;20220;-56
2023/08/19 06:42:58;;;;;;;5.18;3.30;;;;;;;23.58;62.41;65477.28;5050849;28;20212;-54
2023/08/19 06:45:25;;;;;;;4.13;3.60;;;;;;;23.64;62.69;65481.34;5033246;28;20198;-59
2023/08/19 06:47:53;;;;;;;5.38;2.90;;;;;;;23.51;63.32;65467.53;5051478;28;20202;-55
2023/08/19 06:50:19;;;;;;;4.60;3.60;;;;;;;23.65;62.18;65483.03;5051032;28;20228;-55
2023/08/19 06:52:45;;;;;;;7.80;4.03;;;;;;;23.57;62.69;65476.19;5050323;28;20686;-55
2023/08/19 06:55:12;;;;;;;4.95;3.75;;;;;;;23.72;63.64;65490.22;5051506;28;20201;-57
2023/08/19 06:57:49;;;;;;;6.18;4.10;;;;;;;23.95;62.23;65518.31;5051263;28;20205;-57
2023/08/19 07:00:16;;;;;;;4.95;2.97;;;;;;;24.06;58.73;65528.50;5050984;28;20734;-57
2023/08/19 07:02:42;;;;;;;6.50;2.80;;;;;;;24.19;55.29;65542.34;5050706;28;20639;-55
2023/08/19 07:05:18;;;;;;;5.35;3.83;;;;;;;24.29;55.99;65555.47;5051353;28;20208;-56
2023/08/19 07:07:48;;;;;;;21.80;14.57;;;;;;;24.33;54.83;65557.88;5051244;28;20288;-56
2023/08/19 07:10:18;;;;;;;7.03;5.22;;;;;;;24.55;52.68;65584.84;5032898;28;20228;-55
2023/08/19 07:12:45;;;;;;;8.65;5.15;;;;;;;24.70;52.00;65598.38;5050868;28;20248;-55
2023/08/19 07:15:14;;;;;;;4.00;3.28;;;;;;;24.76;50.64;65605.59;5050883;28;20281;-54
2023/08/19 07:21:04;;;;;;;2.63;2.00;;;;;;;25.02;49.29;65630.75;5050770;28;20729;-55
2023/08/19 07:23:30;;;;;;;4.75;4.22;;;;;;;25.08;51.29;65640.00;5050588;28;20208;-55
2023/08/19 07:25:58;;;;;;;3.28;2.67;;;;;;;24.98;50.59;65629.44;5059648;22;20201;-57
2023/08/19 07:28:24;;;;;;;2.92;2.60;;;;;;;25.23;51.18;65656.66;5050023;28;20235;-55
2023/08/19 07:30:50;;;;;;;3.53;3.15;;;;;;;25.22;52.83;65655.53;5050331;28;20284;-54
2023/08/19 07:33:16;;;;;;;4.18;2.63;;;;;;;25.48;51.47;65682.38;5050473;28;20213;-55
2023/08/19 07:35:43;;;;;;;3.33;2.90;;;;;;;25.60;53.31;65700.31;5050343;28;20250;-55
2023/08/19 07:38:09;;;;;;;5.53;3.85;;;;;;;25.64;53.42;65702.72;5050454;28;20282;-55
2023/08/19 07:40:34;;;;;;;4.45;2.90;;;;;;;25.67;52.25;65705.50;5050352;28;20677;-54
2023/08/19 07:43:00;;;;;;;2.75;2.53;;;;;;;25.76;51.45;65716.03;5050450;28;20695;-55
2023/08/19 07:45:25;;;;;;;4.82;2.80;;;;;;;25.76;51.71;65713.47;5050540;28;20571;-55
2023/08/19 07:47:51;;;;;;;3.45;2.90;;;;;;;25.69;53.13;65710.84;5050775;28;20262;-55
2023/08/19 07:50:16;;;;;;;4.40;2.55;;;;;;;25.68;51.78;65709.75;5050048;28;20667;-55
2023/08/19 07:52:42;;;;;;;5.43;2.95;;;;;;;25.76;51.18;65718.06;5050085;28;20292;-54
2023/08/19 07:55:08;;;;;;;6.50;2.95;;;;;;;25.77;50.45;65716.59;5050116;28;20197;-55
2023/08/19 07:57:34;;;;;;;7.35;3.83;;;;;;;25.93;51.88;65736.97;5050747;28;20702;-57
2023/08/19 07:59:59;;;;;;;3.75;2.60;;;;;;;26.09;50.75;65751.59;5049956;28;20189;-54
2023/08/19 08:02:25;;;;;;;4.10;2.78;;;;;;;26.12;51.23;65754.94;5049917;28;20221;-51
2023/08/19 08:04:51;;;;;;;3.53;3.17;;;;;;;26.22;51.54;65769.16;5053191;28;20845;-52
2023/08/19 08:07:16;;;;;;;5.20;2.90;;;;;;;26.17;50.62;65761.03;5035688;28;20236;-52
2023/08/19 08:09:45;;;;;;;3.08;2.60;;;;;;;26.26;50.49;65773.06;5036086;28;20621;-51
2023/08/19 08:12:11;;;;;;;4.55;2.95;;;;;;;26.34;50.30;65781.97;5053807;28;20804;-52
2023/08/19 08:14:37;;;;;;;7.25;3.45;;;;;;;26.38;50.77;65783.81;5053376;28;20206;-51
2023/08/19 08:17:03;;;;;;;8.23;2.67;;;;;;;26.46;49.18;65792.72;5053822;28;20580;-55
2023/08/19 08:19:28;;;;;;;4.25;2.60;;;;;;;26.48;49.19;65792.88;5053342;28;20245;-51
2023/08/19 08:21:54;;;;;;;5.50;3.22;;;;;;;26.43;49.62;65789.94;5053336;28;20209;-53
2023/08/19 08:24:23;;;;;;;7.13;3.38;;;;;;;26.56;50.10;65803.81;5052833;28;20217;-51
2023/08/19 08:26:48;;;;;;;3.58;2.80;;;;;;;26.60;49.35;65808.81;5035064;28;20206;-51
2023/08/19 08:29:14;;;;;;;3.42;2.88;;;;;;;26.90;48.66;65841.63;5052935;28;20552;-63
2023/08/19 08:31:40;;;;;;;3.92;2.80;;;;;;;26.95;49.06;65849.75;5053082;28;20201;-52
2023/08/19 08:34:06;;;;;;;3.67;2.90;;;;;;;27.06;49.95;65858.84;5053131;28;20634;-52
2023/08/19 08:36:32;;;;;;;5.75;2.80;;;;;;;27.15;50.15;65871.44;5052875;28;20225;-52
2023/08/19 08:38:57;;;;;;;4.85;3.50;;;;;;;27.12;49.96;65865.50;5053126;28;20221;-51
2023/08/19 08:41:23;;;;;;;6.95;2.85;;;;;;;27.33;47.58;65886.84;5053102;28;20228;-52
2023/08/19 08:43:49;;;;;;;5.97;3.03;;;;;;;27.47;46.95;65903.91;5035021;28;20330;-51
2023/08/19 08:46:16;;;;;;;6.53;5.28;;;;;;;27.42;48.52;65896.28;5052770;28;20205;-52
2023/08/19 08:48:43;;;;;;;5.07;3.22;;;;;;;27.62;47.11;65920.56;5052703;28;20209;-51
2023/08/19 08:51:10;;;;;;;5.07;2.80;;;;;;;27.43;45.48;65900.00;5053097;28;20248;-52
2023/08/19 08:53:35;;;;;;;4.53;2.75;;;;;;;27.59;46.27;65917.22;5053262;28;20280;-51
2023/08/19 08:56:02;;;;;;;8.50;3.17;;;;;;;27.76;45.16;65934.09;5052558;28;20645;-53
2023/08/19 08:58:27;;;;;;;3.15;2.47;;;;;;;27.99;45.36;65962.31;5052430;28;20226;-51
2023/08/19 09:00:54;;;;;;;4.55;2.80;;;;;;;28.15;45.45;65979.53;5052548;28;20674;-51
2023/08/19 09:03:25;;;;;;;3.90;2.53;;;;;;;28.37;42.68;66000.88;5052534;28;20193;-51
2023/08/19 09:05:56;;;;;;;6.20;2.60;;;;;;;28.37;40.82;66004.03;5052518;28;20209;-52
2023/08/19 09:08:30;;;;;;;2.80;2.03;;;;;;;28.60;40.54;66026.50;5034570;28;20209;-55
2023/08/19 09:11:00;;;;;;;3.47;2.17;;;;;;;28.74;39.42;66045.22;5052734;28;20209;-52
2023/08/19 09:13:26;;;;;;;3.88;1.92;;;;;;;28.91;39.05;66063.59;5034805;28;20683;-51
2023/08/19 09:15:52;;;;;;;4.43;2.22;;;;;;;28.89;40.76;66061.34;5051528;28;20201;-51
2023/08/19 09:18:18;;;;;;;2.20;2.00;;;;;;;29.03;39.36;66077.50;5052333;28;20590;-52
2023/08/19 09:20:44;;;;;;;3.15;1.80;;;;;;;29.18;39.00;66090.53;5052749;28;20211;-51
2023/08/19 09:23:10;;;;;;;4.88;2.30;;;;;;;29.47;38.71;66122.81;5034331;28;20222;-51
2023/08/19 09:25:37;;;;;;;6.15;2.42;;;;;;;29.64;38.65;66142.31;5051994;28;20217;-52
2023/08/19 09:28:03;;;;;;;4.75;2.00;;;;;;;29.87;36.71;66164.81;5052069;28;20303;-51
2023/08/19 09:30:35;;;;;;;2.53;2.25;;;;;;;30.27;37.77;66211.41;5052394;28;20244;-51
2023/08/19 09:33:01;;;;;;;3.05;2.00;;;;;;;30.54;37.21;66239.47;5052673;28;20360;-51
2023/08/19 09:35:38;;;;;;;3.72;2.15;;;;;;;30.44;36.18;66230.94;5052079;28;20205;-51
2023/08/19 09:38:23;;;;;;;5.53;2.20;;;;;;;30.30;35.24;66217.38;5034145;28;20221;-51
2023/08/19 09:41:01;;;;;;;2.67;2.25;;;;;;;30.29;37.73;66214.22;5052194;28;20232;-52
2023/08/19 09:43:27;;;;;;;2.65;2.30;;;;;;;30.33;36.74;66218.13;5051951;28;20235;-52
2023/08/19 09:45:57;;;;;;;2.50;2.17;;;;;;;30.47;35.44;66236.88;5051719;28;20209;-51
2023/08/19 09:48:23;;;;;;;4.35;2.20;;;;;;;30.57;36.26;66247.47;5034057;28;20198;-50
2023/08/19 09:50:49;;;;;;;4.13;2.10;;;;;;;30.76;34.44;66266.06;5052023;28;20213;-52
2023/08/19 09:53:16;;;;;;;4.43;2.58;;;;;;;30.87;34.81;66277.78;5051987;28;20274;-52
2023/08/19 09:55:50;;;;;;;3.72;2.20;;;;;;;31.09;34.62;66302.34;5051923;28;20197;-52
2023/08/19 09:58:15;;;;;;;5.13;2.50;;;;;;;31.11;34.83;66304.56;5051803;28;20233;-56
2023/08/19 10:00:42;;;;;;;6.07;2.30;;;;;;;31.18;34.86;66314.97;5052083;28;20566;-52
2023/08/19 10:03:08;;;;;;;4.88;2.40;;;;;;;31.34;34.67;66333.38;5051763;28;20228;-51
2023/08/19 10:05:40;;;;;;;2.38;1.90;;;;;;;30.98;32.48;66288.00;5051612;28;20580;-52
2023/08/19 10:08:19;;;;;;;7.07;2.47;;;;;;;30.99;34.14;66291.72;5051530;28;20221;-51
2023/08/19 10:10:46;;;;;;;3.15;2.20;;;;;;;31.29;33.17;66325.19;5034099;28;20177;-52
2023/08/19 10:13:12;;;;;;;4.95;2.22;;;;;;;31.52;34.24;66347.13;5051594;28;20210;-52
2023/08/19 10:15:41;;;;;;;5.20;3.10;;;;;;;31.45;33.49;66340.44;5051625;28;20205;-56
2023/08/19 10:18:21;;;;;;;6.38;2.90;;;;;;;31.53;33.79;66351.44;5051722;28;20294;-53
2023/08/19 10:20:52;;;;;;;3.63;2.53;;;;;;;31.62;33.51;66360.91;5033759;28;20220;-53
2023/08/19 10:23:19;;;;;;;5.03;2.60;;;;;;;31.96;34.21;66401.47;5051474;28;20213;-55
2023/08/19 10:25:45;;;;;;;2.38;2.10;;;;;;;32.19;33.38;66422.50;5051888;28;20193;-52
2023/08/19 10:28:13;;;;;;;3.80;2.72;;;;;;;32.24;34.52;66430.13;5050058;28;20209;-52
2023/08/19 10:30:40;;;;;;;2.70;2.50;;;;;;;32.21;33.68;66426.78;5051688;28;20288;-51
2023/08/19 10:33:53;;;;;;;2.78;2.58;;;;;;;32.43;33.24;66453.94;5051254;28;20225;-55
2023/08/19 10:36:20;;;;;;;5.07;2.58;;;;;;;32.59;32.69;66466.59;5050987;28;20232;-51
2023/08/19 10:38:47;;;;;;;2.20;2.00;;;;;;;32.16;32.26;66421.75;5050817;28;20267;-51
2023/08/19 10:41:24;;;;;;;5.53;2.38;;;;;;;32.50;33.40;66458.63;5033330;28;20252;-51
2023/08/19 10:43:54;;;;;;;2.20;2.00;;;;;;;32.38;31.01;66445.75;5050969;28;20342;-51
2023/08/19 10:46:19;;;;;;;4.35;3.03;;;;;;;32.01;32.53;66401.84;5032941;28;20683;-52
2023/08/19 10:48:46;;;;;;;4.32;2.10;;;;;;;32.05;32.09;66412.09;5050737;28;20209;-51
2023/08/19 10:51:12;;;;;;;5.15;2.65;;;;;;;32.21;32.05;66427.34;5051148;28;20213;-57
2023/08/19 10:53:37;;;;;;;4.05;2.35;;;;;;;32.29;32.08;66433.09;5050974;28;20209;-52
2023/08/19 10:56:12;;;;;;;2.47;2.28;;;;;;;32.48;32.10;66456.94;5032911;28;20220;-56
2023/08/19 10:58:40;;;;;;;5.63;3.65;;;;;;;32.27;32.06;66433.47;5050911;28;20213;-51
2023/08/19 11:01:06;;;;;;;4.10;2.53;;;;;;;32.44;31.92;66452.47;5051091;28;20350;-51
2023/08/19 11:03:31;;;;;;;3.67;2.20;;;;;;;32.11;32.26;66415.63;5050669;28;20203;-52
2023/08/19 11:05:57;;;;;;;4.20;2.80;;;;;;;31.63;32.71;66362.59;5050660;28;20201;-51
2023/08/19 11:08:22;;;;;;;2.85;2.47;;;;;;;31.47;34.20;66344.19;5050727;28;20205;-52
2023/08/19 11:10:48;;;;;;;3.80;2.50;;;;;;;31.85;32.96;66387.13;5050677;28;20204;-52
2023/08/19 11:13:15;;;;;;;2.53;2.28;;;;;;;31.96;33.93;66396.81;5050697;28;20194;-52
2023/08/19 11:15:41;;;;;;;4.65;2.58;;;;;;;31.81;32.88;66384.72;5050532;28;20201;-51
2023/08/19 11:18:19;;;;;;;3.95;2.60;;;;;;;32.01;33.70;66402.41;5032523;28;20309;-52
2023/08/19 11:20:45;;;;;;;7.65;2.95;;;;;;;31.97;33.30;66400.00;5050779;28;20262;-52
2023/08/19 11:23:10;;;;;;;4.32;2.38;;;;;;;32.04;33.45;66408.34;5050866;28;20625;-52
2023/08/19 11:25:39;;;;;;;3.25;1.98;;;;;;;32.48;33.91;66456.94;5050629;28;20209;-52
2023/08/19 11:28:05;;;;;;;11.98;10.13;;;;;;;32.34;33.83;66440.72;5032742;28;20711;-52
2023/08/19 11:30:31;;;;;;;2.97;2.75;;;;;;;32.45;31.32;66450.41;5050713;28;20629;-53
2023/08/19 11:32:57;;;;;;;4.00;2.53;;;;;;;32.92;32.24;66503.47;5050201;28;20232;-51
2023/08/19 11:35:26;;;;;;;2.70;2.50;;;;;;;32.90;31.88;66503.28;5050480;28;20208;-52